Terminal Aerodrome Forecast
Issued by NWS Shreveport, LA

Home | Current Version | Previous Version | Text Only | Print | Product List | Glossary On
Versions: 1 2 3 4 5 6 7 8 9 10 11 12 13 14 15 16 17 18
000
FTUS44 KSHV 271700
TAFTYR
TAF
KTYR 271724Z 2718/2818 34012KT P6SM BKN012 OVC022
     FM280000 35014G20KT P6SM VCSH BKN007 OVC015
     FM280600 33008KT P6SM OVC015
      TEMPO 2806/2810 4SM -RA BR
     FM281200 35006KT P6SM OVC100=

USA.gov is the U.S. government's official web portal to all federal, state and local government web resources and services.